Time;durP1;ratioP1;P1;durP2;ratioP2;P2;SDS_P1;SDS_P2;PMS_P1;PMS_P2;Temp;Humidity;BMP_temperature;BMP_pressure;BME280_temperature;BME280_humidity;BME280_pressure;Samples;Min_cycle;Max_cycle;Signal;HPM_P1;HPM_P2
2022/11/12 00:01:13;;;;;;;6.53;3.45;;;;;;;;;;5044152;28;20045;-52
2022/11/12 00:03:41;;;;;;;6.30;3.30;;;;;;;;;;5044416;28;20529;-50
2022/11/12 00:06:09;;;;;;;5.53;2.97;;;;;;;;;;5040861;28;20055;-53
2022/11/12 00:08:36;;;;;;;6.13;2.88;;;;;;;;;;5053665;28;20540;-50
2022/11/12 00:11:06;;;;;;;5.50;3.17;;;;;;;;;;5052859;28;20148;-50
2022/11/12 00:13:33;;;;;;;7.38;3.15;;;;;;;;;;5040025;28;20054;-50
2022/11/12 00:16:01;;;;;;;4.32;2.50;;;;;;;;;;5042110;28;20482;-51
2022/11/12 00:18:28;;;;;;;6.15;3.00;;;;;;;;;;5039886;28;20141;-50
2022/11/12 00:20:56;;;;;;;8.15;3.22;;;;;;;;;;5045406;28;20045;-53
2022/11/12 00:23:24;;;;;;;5.10;2.78;;;;;;;;;;5046092;28;20139;-52
2022/11/12 00:25:57;;;;;;;6.90;3.10;;;;;;;;;;5050263;28;20136;-50
2022/11/12 00:28:29;;;;;;;6.88;3.35;;;;;;;;;;5040832;28;20127;-53
2022/11/12 00:30:59;;;;;;;8.43;3.35;;;;;;;;;;5042776;28;20056;-51
2022/11/12 00:33:29;;;;;;;8.30;2.63;;;;;;;;;;5052134;28;20140;-51
2022/11/12 00:35:59;;;;;;;6.38;2.75;;;;;;;;;;5052357;28;21570;-52
2022/11/12 00:38:27;;;;;;;5.63;3.47;;;;;;;;;;5053856;28;20148;-53
2022/11/12 00:40:54;;;;;;;6.07;3.15;;;;;;;;;;5036796;28;20478;-50
2022/11/12 00:43:23;;;;;;;8.10;2.63;;;;;;;;;;5044830;28;20049;-53
2022/11/12 00:45:53;;;;;;;8.55;3.05;;;;;;;;;;5035029;28;20425;-50
2022/11/12 00:48:20;;;;;;;5.32;2.63;;;;;;;;;;5033689;28;20063;-49
2022/11/12 00:50:50;;;;;;;6.60;3.33;;;;;;;;;;5033934;28;20049;-50
2022/11/12 00:53:20;;;;;;;6.43;3.10;;;;;;;;;;5043087;28;20037;-49
2022/11/12 00:55:50;;;;;;;6.10;2.80;;;;;;;;;;5033803;28;20061;-50
2022/11/12 00:58:20;;;;;;;7.57;3.67;;;;;;;;;;5033778;28;20049;-52
2022/11/12 01:00:49;;;;;;;10.55;3.42;;;;;;;;;;5049617;28;21426;-53
2022/11/12 01:03:29;;;;;;;7.03;3.25;;;;;;;;;;5053542;28;20052;-50
2022/11/12 01:06:01;;;;;;;6.30;2.97;;;;;;;;;;5034373;28;20053;-50
2022/11/12 01:08:31;;;;;;;9.95;3.67;;;;;;;;;;5036573;28;20136;-50
2022/11/12 01:11:04;;;;;;;6.28;3.25;;;;;;;;;;5046324;28;20072;-51
2022/11/12 01:13:32;;;;;;;6.75;2.83;;;;;;;;;;5049016;28;20156;-50
2022/11/12 01:15:59;;;;;;;7.10;3.33;;;;;;;;;;5045677;28;20054;-53
2022/11/12 01:18:32;;;;;;;5.78;3.28;;;;;;;;;;5044965;28;20124;-53
2022/11/12 01:21:03;;;;;;;8.88;3.78;;;;;;;;;;5033690;28;20049;-52
2022/11/12 01:23:32;;;;;;;7.80;3.55;;;;;;;;;;5051610;28;20119;-50
2022/11/12 01:26:03;;;;;;;5.63;2.88;;;;;;;;;;5053181;28;20172;-52
2022/11/12 01:28:31;;;;;;;5.90;2.80;;;;;;;;;;5052805;28;20099;-50
2022/11/12 01:31:09;;;;;;;5.90;3.55;;;;;;;;;;5053057;28;20142;-50
2022/11/12 01:33:38;;;;;;;5.50;3.17;;;;;;;;;;5039024;28;20124;-51
2022/11/12 01:36:06;;;;;;;9.80;3.10;;;;;;;;;;5041971;28;20149;-52
2022/11/12 01:38:34;;;;;;;4.63;2.63;;;;;;;;;;5049358;28;20049;-50
2022/11/12 01:41:04;;;;;;;7.28;2.90;;;;;;;;;;5038168;28;20144;-50
2022/11/12 01:43:31;;;;;;;4.63;2.67;;;;;;;;;;5031751;28;20103;-50
2022/11/12 01:46:00;;;;;;;5.47;2.53;;;;;;;;;;5037814;28;20136;-50
2022/11/12 01:48:30;;;;;;;6.68;3.45;;;;;;;;;;5032841;28;20151;-50
2022/11/12 01:50:58;;;;;;;7.95;2.75;;;;;;;;;;5037681;28;20053;-53
2022/11/12 01:53:28;;;;;;;5.45;2.80;;;;;;;;;;5032825;28;20133;-53
2022/11/12 01:55:56;;;;;;;6.72;3.00;;;;;;;;;;5032609;28;20053;-51
2022/11/12 01:58:27;;;;;;;7.72;3.60;;;;;;;;;;5033404;28;20136;-50
2022/11/12 02:00:54;;;;;;;5.75;3.20;;;;;;;;;;5045094;28;20140;-52
2022/11/12 02:03:24;;;;;;;6.47;3.22;;;;;;;;;;5033594;28;20140;-50
2022/11/12 02:05:54;;;;;;;6.50;3.03;;;;;;;;;;5039642;28;20128;-51
2022/11/12 02:08:24;;;;;;;6.13;2.75;;;;;;;;;;5040897;28;20551;-50
2022/11/12 02:10:51;;;;;;;5.40;3.00;;;;;;;;;;5036132;28;20131;-49
2022/11/12 02:16:05;;;;;;;6.78;2.70;;;;;;;;;;5041240;28;20052;-49
2022/11/12 02:18:34;;;;;;;6.45;2.50;;;;;;;;;;5051281;28;20133;-50
2022/11/12 02:21:04;;;;;;;6.03;3.35;;;;;;;;;;5050444;28;20049;-52
2022/11/12 02:23:36;;;;;;;6.75;3.42;;;;;;;;;;5043472;28;20456;-49
2022/11/12 02:26:03;;;;;;;6.28;3.10;;;;;;;;;;5040367;28;20045;-51
2022/11/12 02:28:31;;;;;;;8.18;2.80;;;;;;;;;;5049992;28;20506;-50
2022/11/12 02:30:59;;;;;;;5.47;2.88;;;;;;;;;;5044930;28;20144;-51
2022/11/12 02:33:26;;;;;;;5.53;3.00;;;;;;;;;;5051461;28;20148;-49
2022/11/12 02:35:54;;;;;;;5.03;2.70;;;;;;;;;;5051600;28;20128;-51
2022/11/12 02:38:22;;;;;;;5.97;2.60;;;;;;;;;;5036701;28;20128;-50
2022/11/12 02:40:50;;;;;;;4.45;2.55;;;;;;;;;;5032049;28;20081;-50
2022/11/12 02:43:17;;;;;;;5.85;2.20;;;;;;;;;;5041022;28;20137;-51
2022/11/12 02:45:45;;;;;;;6.47;2.67;;;;;;;;;;5043421;28;20053;-51
2022/11/12 02:48:13;;;;;;;5.53;2.83;;;;;;;;;;5036258;28;20135;-54
2022/11/12 02:50:41;;;;;;;7.60;2.38;;;;;;;;;;5038074;28;20049;-50
2022/11/12 02:53:08;;;;;;;7.07;2.92;;;;;;;;;;5041932;28;20478;-52
2022/11/12 02:55:36;;;;;;;5.82;2.40;;;;;;;;;;5039191;28;20076;-50
2022/11/12 02:58:05;;;;;;;6.72;2.50;;;;;;;;;;5035303;28;21014;-51
2022/11/12 03:00:33;;;;;;;8.18;3.08;;;;;;;;;;5048690;28;20128;-52
2022/11/12 03:03:03;;;;;;;5.88;2.75;;;;;;;;;;5051896;28;20132;-52
2022/11/12 03:05:31;;;;;;;5.93;2.42;;;;;;;;;;5040640;28;20431;-51
2022/11/12 03:07:59;;;;;;;7.60;3.13;;;;;;;;;;5035340;28;20053;-53
2022/11/12 03:10:27;;;;;;;4.88;2.40;;;;;;;;;;5035907;28;20081;-51
2022/11/12 03:12:57;;;;;;;4.30;2.30;;;;;;;;;;5054240;28;20457;-50
2022/11/12 03:15:26;;;;;;;5.43;2.67;;;;;;;;;;5055262;28;20041;-52
2022/11/12 03:17:54;;;;;;;6.65;2.65;;;;;;;;;;5054116;28;20132;-52
2022/11/12 03:20:21;;;;;;;4.28;2.28;;;;;;;;;;5054714;28;20136;-50
2022/11/12 03:22:55;;;;;;;4.38;2.20;;;;;;;;;;5052254;28;20056;-52
2022/11/12 03:25:22;;;;;;;7.13;2.63;;;;;;;;;;5047127;28;20168;-50
2022/11/12 03:27:56;;;;;;;3.78;2.15;;;;;;;;;;5037325;28;20046;-52
2022/11/12 03:30:23;;;;;;;5.35;2.40;;;;;;;;;;5035429;28;20133;-53
2022/11/12 03:32:53;;;;;;;9.10;2.65;;;;;;;;;;5041808;28;20124;-51
2022/11/12 03:35:20;;;;;;;5.32;2.35;;;;;;;;;;5040274;28;20051;-50
2022/11/12 03:37:49;;;;;;;5.80;2.20;;;;;;;;;;5043951;28;20075;-50
2022/11/12 03:40:17;;;;;;;6.20;2.25;;;;;;;;;;5034902;28;20196;-50
2022/11/12 03:42:48;;;;;;;5.55;2.05;;;;;;;;;;5034378;28;20401;-51
2022/11/12 03:45:16;;;;;;;5.28;2.35;;;;;;;;;;5034620;28;20064;-50
2022/11/12 03:47:44;;;;;;;6.72;2.13;;;;;;;;;;5042047;28;20447;-51
2022/11/12 03:50:14;;;;;;;4.20;2.05;;;;;;;;;;5037431;28;20620;-52
2022/11/12 03:52:44;;;;;;;5.40;2.33;;;;;;;;;;5039457;28;20141;-52
2022/11/12 03:55:11;;;;;;;5.65;2.40;;;;;;;;;;5042368;28;20128;-51
2022/11/12 03:57:41;;;;;;;7.38;2.35;;;;;;;;;;5034209;28;20084;-49
2022/11/12 04:00:10;;;;;;;6.22;2.05;;;;;;;;;;5034864;28;20077;-50
2022/11/12 04:02:38;;;;;;;4.43;2.10;;;;;;;;;;5035811;28;20718;-50
2022/11/12 04:10:55;;;;;;;4.70;2.10;;;;;;;;;;4977545;28;20089;-52
2022/11/12 04:13:29;;;;;;;9.23;2.40;;;;;;;;;;4992996;28;20559;-51
2022/11/12 04:27:02;;;;;;;5.22;2.22;;;;;;;;;;4994892;28;20108;-49
2022/11/12 04:32:15;;;;;;;5.97;3.10;;;;;;;;;;5002950;28;20130;-53
2022/11/12 04:34:42;;;;;;;6.95;2.22;;;;;;;;;;4994903;28;20089;-50
2022/11/12 04:37:12;;;;;;;5.47;2.15;;;;;;;;;;4997914;28;20052;-53
2022/11/12 04:39:41;;;;;;;7.13;2.22;;;;;;;;;;4995082;28;20046;-50
2022/11/12 04:45:02;;;;;;;5.53;2.30;;;;;;;;;;4994547;28;20056;-52
2022/11/12 04:47:31;;;;;;;4.43;1.98;;;;;;;;;;4999768;28;20070;-49
2022/11/12 04:49:59;;;;;;;13.23;2.60;;;;;;;;;;4994392;28;20157;-49
2022/11/12 04:52:27;;;;;;;6.18;2.60;;;;;;;;;;4994862;28;20145;-51
2022/11/12 04:54:59;;;;;;;5.97;2.40;;;;;;;;;;5009663;28;20116;-50
2022/11/12 04:57:27;;;;;;;5.70;2.22;;;;;;;;;;4994526;28;20136;-52
2022/11/12 04:59:54;;;;;;;5.60;2.50;;;;;;;;;;4993866;28;20133;-53
2022/11/12 05:02:22;;;;;;;8.60;2.65;;;;;;;;;;4997335;28;20086;-50
2022/11/12 05:04:50;;;;;;;6.53;2.83;;;;;;;;;;4993961;28;20055;-51
2022/11/12 05:07:17;;;;;;;6.95;2.63;;;;;;;;;;4994194;28;20141;-50
2022/11/12 05:09:45;;;;;;;4.18;2.40;;;;;;;;;;4993542;28;20141;-50
2022/11/12 05:12:22;;;;;;;8.05;3.03;;;;;;;;;;5012946;28;20477;-50
2022/11/12 05:14:50;;;;;;;4.95;2.63;;;;;;;;;;5033518;28;20042;-52
2022/11/12 05:17:20;;;;;;;6.32;2.67;;;;;;;;;;5036193;28;20053;-50
2022/11/12 05:19:50;;;;;;;3.38;2.13;;;;;;;;;;5050378;28;20126;-50
2022/11/12 05:22:17;;;;;;;5.90;2.70;;;;;;;;;;5044953;28;20056;-50
2022/11/12 05:24:45;;;;;;;8.68;2.75;;;;;;;;;;5035814;28;20133;-51
2022/11/12 05:27:15;;;;;;;10.38;3.00;;;;;;;;;;5033085;28;20136;-52
2022/11/12 05:29:42;;;;;;;6.97;2.40;;;;;;;;;;5034054;28;20450;-51
2022/11/12 05:32:11;;;;;;;6.72;2.13;;;;;;;;;;5047956;28;20132;-51
2022/11/12 05:34:39;;;;;;;3.90;2.05;;;;;;;;;;5033307;28;20061;-51
2022/11/12 05:37:07;;;;;;;8.60;2.28;;;;;;;;;;5036179;28;20131;-50
2022/11/12 05:39:35;;;;;;;8.13;2.92;;;;;;;;;;5041059;28;20473;-53
2022/11/12 05:42:03;;;;;;;4.60;2.40;;;;;;;;;;5036326;28;20060;-51
2022/11/12 05:44:31;;;;;;;5.68;2.45;;;;;;;;;;5032899;28;20128;-51
2022/11/12 05:46:59;;;;;;;5.85;2.08;;;;;;;;;;5035059;28;20055;-52
2022/11/12 05:49:27;;;;;;;3.30;1.63;;;;;;;;;;5033003;28;20133;-50
2022/11/12 05:51:54;;;;;;;4.45;1.80;;;;;;;;;;5036727;28;20501;-51
2022/11/12 05:54:24;;;;;;;6.13;2.25;;;;;;;;;;5041021;28;20049;-53
2022/11/12 05:56:52;;;;;;;3.65;2.10;;;;;;;;;;5032642;28;20049;-52
2022/11/12 05:59:21;;;;;;;7.32;2.92;;;;;;;;;;5035569;28;20052;-49
2022/11/12 06:01:53;;;;;;;6.38;2.53;;;;;;;;;;5032222;28;20363;-52
2022/11/12 06:04:22;;;;;;;4.03;2.28;;;;;;;;;;5045560;28;20049;-50
2022/11/12 06:06:49;;;;;;;5.50;1.90;;;;;;;;;;5032543;28;20055;-53
2022/11/12 06:09:17;;;;;;;6.93;1.80;;;;;;;;;;5033949;28;20137;-50
2022/11/12 06:11:45;;;;;;;4.05;1.80;;;;;;;;;;5042742;28;20076;-49
2022/11/12 06:14:12;;;;;;;4.82;1.92;;;;;;;;;;5035835;28;20136;-49
2022/11/12 06:16:40;;;;;;;4.50;2.30;;;;;;;;;;5032550;28;20537;-53
2022/11/12 06:19:09;;;;;;;7.47;2.45;;;;;;;;;;5049305;28;20136;-52
2022/11/12 06:21:36;;;;;;;5.57;1.85;;;;;;;;;;5033079;28;20125;-53
2022/11/12 06:24:04;;;;;;;4.88;2.33;;;;;;;;;;5050550;28;20084;-49
2022/11/12 06:26:32;;;;;;;4.32;1.80;;;;;;;;;;5044526;28;20465;-51
2022/11/12 06:29:00;;;;;;;6.25;1.95;;;;;;;;;;5045826;28;20058;-51
2022/11/12 06:31:28;;;;;;;5.88;2.28;;;;;;;;;;5039426;28;20128;-51
2022/11/12 06:33:55;;;;;;;5.03;2.20;;;;;;;;;;5041226;28;20065;-52
2022/11/12 06:36:24;;;;;;;7.75;2.50;;;;;;;;;;5036350;28;20156;-50
2022/11/12 06:38:52;;;;;;;7.20;2.40;;;;;;;;;;5039258;28;20484;-53
2022/11/12 06:41:20;;;;;;;6.65;2.67;;;;;;;;;;5036552;28;20140;-49
2022/11/12 06:43:48;;;;;;;7.65;2.53;;;;;;;;;;5038540;28;20141;-53
2022/11/12 06:46:17;;;;;;;4.72;1.90;;;;;;;;;;5039409;28;20076;-50
2022/11/12 06:48:44;;;;;;;4.20;2.10;;;;;;;;;;5037336;28;20056;-49
2022/11/12 06:51:16;;;;;;;3.95;2.05;;;;;;;;;;5036643;28;20140;-50
2022/11/12 06:53:45;;;;;;;6.95;2.08;;;;;;;;;;5040201;28;20049;-50
2022/11/12 06:56:14;;;;;;;7.70;2.75;;;;;;;;;;5035746;28;20150;-50
2022/11/12 06:58:41;;;;;;;7.53;2.60;;;;;;;;;;5039241;28;20124;-52
2022/11/12 07:01:10;;;;;;;5.68;2.03;;;;;;;;;;5035564;28;20053;-49
2022/11/12 07:03:38;;;;;;;4.70;1.80;;;;;;;;;;5043865;28;20051;-50
2022/11/12 07:06:07;;;;;;;4.65;1.88;;;;;;;;;;5039758;28;20096;-51
2022/11/12 07:08:36;;;;;;;5.72;1.70;;;;;;;;;;5035753;28;20128;-51
2022/11/12 07:11:06;;;;;;;3.33;1.85;;;;;;;;;;5036829;28;20395;-50
2022/11/12 07:13:35;;;;;;;12.48;2.60;;;;;;;;;;5038530;28;20132;-50
2022/11/12 07:16:06;;;;;;;5.70;2.08;;;;;;;;;;5034965;28;20124;-53
2022/11/12 07:18:32;;;;;;;6.20;1.83;;;;;;;;;;5042618;28;20400;-51
2022/11/12 07:21:01;;;;;;;4.63;1.92;;;;;;;;;;5040842;28;20203;-50
2022/11/12 07:23:30;;;;;;;7.18;1.75;;;;;;;;;;5040580;28;20057;-51
2022/11/12 07:25:59;;;;;;;5.00;1.83;;;;;;;;;;5037014;28;20048;-50
2022/11/12 07:28:28;;;;;;;4.75;1.90;;;;;;;;;;5051945;28;20132;-50
2022/11/12 07:30:55;;;;;;;2.80;1.10;;;;;;;;;;5038355;28;20049;-53
2022/11/12 07:33:23;;;;;;;3.05;1.48;;;;;;;;;;5042990;28;20076;-50
2022/11/12 07:35:56;;;;;;;3.58;1.73;;;;;;;;;;5038396;28;20041;-52
2022/11/12 07:38:24;;;;;;;4.00;1.80;;;;;;;;;;5043190;28;20601;-50
2022/11/12 07:40:52;;;;;;;3.63;1.40;;;;;;;;;;5034508;28;20649;-50
2022/11/12 07:43:20;;;;;;;3.33;1.70;;;;;;;;;;5041641;28;20136;-50
2022/11/12 07:45:49;;;;;;;2.30;1.20;;;;;;;;;;5035037;28;20045;-49
2022/11/12 07:48:17;;;;;;;2.95;1.33;;;;;;;;;;5035262;28;20111;-49
2022/11/12 07:50:45;;;;;;;3.78;1.60;;;;;;;;;;5035078;28;20103;-49
2022/11/12 07:53:15;;;;;;;2.50;1.15;;;;;;;;;;5039478;28;20127;-50
2022/11/12 07:55:42;;;;;;;6.00;1.73;;;;;;;;;;5035133;28;20037;-51
2022/11/12 07:58:09;;;;;;;6.57;1.35;;;;;;;;;;5038368;28;20085;-49
2022/11/12 08:00:36;;;;;;;3.08;1.38;;;;;;;;;;5034654;28;20085;-50
2022/11/12 08:03:05;;;;;;;3.42;1.60;;;;;;;;;;5034577;28;20097;-52
2022/11/12 08:05:35;;;;;;;4.80;1.38;;;;;;;;;;5034773;28;20124;-51
2022/11/12 08:08:03;;;;;;;3.70;1.33;;;;;;;;;;5052331;28;20106;-51
2022/11/12 08:10:30;;;;;;;6.88;1.63;;;;;;;;;;5044933;28;20131;-52
2022/11/12 08:12:57;;;;;;;5.50;1.70;;;;;;;;;;5034935;28;20136;-53
2022/11/12 08:15:24;;;;;;;5.88;1.52;;;;;;;;;;5034490;28;20513;-52
2022/11/12 08:17:52;;;;;;;3.13;1.25;;;;;;;;;;5035786;28;20506;-52
2022/11/12 08:20:24;;;;;;;7.05;1.80;;;;;;;;;;5045914;28;20133;-53
2022/11/12 08:22:51;;;;;;;3.15;1.55;;;;;;;;;;5042813;28;20136;-50
2022/11/12 08:25:21;;;;;;;7.80;1.25;;;;;;;;;;5049114;28;20080;-52
2022/11/12 08:27:49;;;;;;;4.82;1.35;;;;;;;;;;5036058;28;20732;-50
2022/11/12 08:30:17;;;;;;;4.75;1.38;;;;;;;;;;5037016;28;20516;-49
2022/11/12 08:32:43;;;;;;;2.88;1.10;;;;;;;;;;5038911;28;20143;-49
2022/11/12 08:35:09;;;;;;;6.35;1.40;;;;;;;;;;5034417;28;20045;-52
2022/11/12 08:37:37;;;;;;;2.45;1.13;;;;;;;;;;5039322;28;20081;-52
2022/11/12 08:40:04;;;;;;;6.38;1.40;;;;;;;;;;5041325;28;20045;-50
2022/11/12 08:42:30;;;;;;;5.28;1.48;;;;;;;;;;5034367;28;20125;-50
2022/11/12 08:45:15;;;;;;;4.80;1.42;;;;;;;;;;5033454;28;20172;-53
2022/11/12 08:47:41;;;;;;;6.50;1.63;;;;;;;;;;5039361;28;20465;-50
2022/11/12 08:50:08;;;;;;;5.03;1.63;;;;;;;;;;5034105;28;20288;-53
2022/11/12 08:52:35;;;;;;;6.95;1.83;;;;;;;;;;5043563;28;20151;-50
2022/11/12 08:55:03;;;;;;;4.07;1.50;;;;;;;;;;5039959;28;20418;-52
2022/11/12 08:57:29;;;;;;;3.13;1.20;;;;;;;;;;5033458;28;20077;-49
2022/11/12 08:59:56;;;;;;;9.05;1.83;;;;;;;;;;5032661;28;20132;-50
2022/11/12 09:02:26;;;;;;;3.38;1.48;;;;;;;;;;5036648;28;20132;-52
2022/11/12 09:04:54;;;;;;;5.53;1.55;;;;;;;;;;5035200;28;20154;-50
2022/11/12 09:07:22;;;;;;;6.22;1.83;;;;;;;;;;5033446;28;20462;-52
2022/11/12 09:09:49;;;;;;;7.43;1.80;;;;;;;;;;5037135;28;20136;-53
2022/11/12 09:12:18;;;;;;;5.07;1.95;;;;;;;;;;5035646;28;20140;-51
2022/11/12 09:14:46;;;;;;;5.15;1.52;;;;;;;;;;5033447;28;20053;-51
2022/11/12 09:17:14;;;;;;;5.90;1.48;;;;;;;;;;5038314;28;20077;-50
2022/11/12 09:19:42;;;;;;;6.65;1.77;;;;;;;;;;5047783;28;20140;-50
2022/11/12 09:22:09;;;;;;;4.90;1.60;;;;;;;;;;5040590;28;20144;-52
2022/11/12 09:24:37;;;;;;;5.55;1.90;;;;;;;;;;5052886;28;20146;-50
2022/11/12 09:27:04;;;;;;;4.20;1.63;;;;;;;;;;5051457;28;20051;-52
2022/11/12 09:29:36;;;;;;;4.03;1.80;;;;;;;;;;5049355;28;20137;-52
2022/11/12 09:32:04;;;;;;;3.15;1.63;;;;;;;;;;5051385;28;20204;-49
2022/11/12 09:34:31;;;;;;;4.70;2.03;;;;;;;;;;5041443;28;20136;-50
2022/11/12 09:36:58;;;;;;;5.32;1.80;;;;;;;;;;5050276;28;20464;-52
2022/11/12 09:39:27;;;;;;;5.95;2.10;;;;;;;;;;5042807;28;20481;-49
2022/11/12 09:42:08;;;;;;;4.57;1.50;;;;;;;;;;5038258;28;20053;-53
2022/11/12 09:44:39;;;;;;;4.60;2.08;;;;;;;;;;5037084;28;20099;-50
2022/11/12 09:47:15;;;;;;;8.80;1.80;;;;;;;;;;5039423;28;20133;-53
2022/11/12 09:49:46;;;;;;;3.53;1.77;;;;;;;;;;5035288;28;20041;-51
2022/11/12 09:52:16;;;;;;;6.05;2.10;;;;;;;;;;5032472;28;20053;-51
2022/11/12 09:54:44;;;;;;;5.90;2.30;;;;;;;;;;5035801;28;20049;-51
2022/11/12 09:57:11;;;;;;;7.20;2.30;;;;;;;;;;5039306;28;20096;-49
2022/11/12 09:59:42;;;;;;;7.88;2.40;;;;;;;;;;5040516;28;20142;-52
2022/11/12 10:02:22;;;;;;;7.75;2.10;;;;;;;;;;5032977;28;20115;-50
2022/11/12 10:04:56;;;;;;;4.82;1.83;;;;;;;;;;5033675;28;20230;-51
2022/11/12 10:07:29;;;;;;;5.43;2.33;;;;;;;;;;5044810;28;20114;-48
2022/11/12 10:10:05;;;;;;;6.05;1.70;;;;;;;;;;5046917;28;20137;-49
2022/11/12 10:12:37;;;;;;;4.63;1.58;;;;;;;;;;5044197;28;20122;-49
2022/11/12 10:18:08;;;;;;;8.73;2.40;;;;;;;;;;5046739;28;20060;-49
2022/11/12 10:20:40;;;;;;;5.78;2.00;;;;;;;;;;5048986;28;20048;-48
2022/11/12 10:23:15;;;;;;;5.18;2.45;;;;;;;;;;5046672;28;20131;-48
2022/11/12 10:25:43;;;;;;;3.90;1.73;;;;;;;;;;5047372;28;20151;-52
2022/11/12 10:28:15;;;;;;;6.28;2.70;;;;;;;;;;5040242;28;20061;-51
2022/11/12 10:30:43;;;;;;;6.50;2.17;;;;;;;;;;5036896;28;20107;-50
2022/11/12 10:33:13;;;;;;;8.98;2.45;;;;;;;;;;5034542;28;20049;-51
2022/11/12 10:35:40;;;;;;;7.35;2.60;;;;;;;;;;5030590;28;20057;-51
2022/11/12 10:38:07;;;;;;;7.35;2.08;;;;;;;;;;5035017;28;20049;-50
2022/11/12 10:40:34;;;;;;;5.68;1.90;;;;;;;;;;5031808;28;20068;-50
2022/11/12 10:43:04;;;;;;;6.50;2.70;;;;;;;;;;5037517;28;20626;-50
2022/11/12 10:45:31;;;;;;;5.72;2.08;;;;;;;;;;5038983;28;20055;-51
2022/11/12 10:47:59;;;;;;;6.30;2.20;;;;;;;;;;5048025;28;20553;-54
2022/11/12 10:50:28;;;;;;;5.72;2.45;;;;;;;;;;5044061;28;20132;-53
2022/11/12 10:53:00;;;;;;;7.80;2.22;;;;;;;;;;5039386;28;20132;-51
2022/11/12 10:55:30;;;;;;;7.63;2.83;;;;;;;;;;5031179;28;20107;-50
2022/11/12 10:58:07;;;;;;;8.10;2.75;;;;;;;;;;5031059;28;20107;-54
2022/11/12 11:00:33;;;;;;;5.05;2.53;;;;;;;;;;5039450;28;20561;-51
2022/11/12 11:03:03;;;;;;;6.55;2.53;;;;;;;;;;5030608;28;20438;-52
2022/11/12 11:05:31;;;;;;;6.82;2.60;;;;;;;;;;5033943;28;20056;-53
2022/11/12 11:07:57;;;;;;;7.68;2.55;;;;;;;;;;5030846;28;20045;-52
2022/11/12 11:10:25;;;;;;;6.35;2.28;;;;;;;;;;5031163;28;20084;-52
2022/11/12 11:13:07;;;;;;;6.85;2.47;;;;;;;;;;5032557;28;20136;-51
2022/11/12 11:15:35;;;;;;;4.85;2.00;;;;;;;;;;5032632;28;20049;-52
2022/11/12 11:18:04;;;;;;;4.57;2.20;;;;;;;;;;5038762;28;20128;-53
2022/11/12 11:20:38;;;;;;;5.65;1.80;;;;;;;;;;5054825;28;20060;-52
2022/11/12 11:23:08;;;;;;;5.47;2.20;;;;;;;;;;5042537;28;20128;-51
2022/11/12 11:25:35;;;;;;;5.43;2.53;;;;;;;;;;5037435;28;20372;-53
2022/11/12 11:28:08;;;;;;;7.05;2.15;;;;;;;;;;5034849;28;20124;-52
2022/11/12 11:30:38;;;;;;;4.47;2.00;;;;;;;;;;5035812;28;20103;-55
2022/11/12 11:33:29;;;;;;;6.40;1.90;;;;;;;;;;5047419;28;20140;-51
2022/11/12 11:36:02;;;;;;;6.32;2.25;;;;;;;;;;5038680;28;20084;-53
2022/11/12 11:38:33;;;;;;;2.95;1.85;;;;;;;;;;5053011;28;20140;-53
2022/11/12 11:41:05;;;;;;;5.47;2.72;;;;;;;;;;5035442;28;20053;-51
2022/11/12 11:43:39;;;;;;;6.60;2.75;;;;;;;;;;5035191;28;20049;-54
2022/11/12 11:46:09;;;;;;;5.65;2.88;;;;;;;;;;5034893;28;20087;-55
2022/11/12 11:48:43;;;;;;;5.68;2.55;;;;;;;;;;5048120;28;20088;-52
2022/11/12 11:51:15;;;;;;;6.82;2.85;;;;;;;;;;5037982;28;20168;-52
2022/11/12 11:53:45;;;;;;;6.78;2.95;;;;;;;;;;5039170;28;20053;-52
2022/11/12 11:56:14;;;;;;;7.40;2.42;;;;;;;;;;5035000;28;20141;-54
2022/11/12 11:59:02;;;;;;;7.50;2.40;;;;;;;;;;5034816;28;20546;-53
2022/11/12 12:01:31;;;;;;;7.38;2.72;;;;;;;;;;5033651;28;20057;-51
2022/11/12 12:04:13;;;;;;;10.60;3.42;;;;;;;;;;5044908;28;20128;-51
2022/11/12 12:06:44;;;;;;;8.85;2.63;;;;;;;;;;5054892;28;20135;-51
2022/11/12 12:09:20;;;;;;;5.40;2.10;;;;;;;;;;5040164;28;20148;-54
2022/11/12 12:11:54;;;;;;;10.88;2.65;;;;;;;;;;5036639;28;20144;-54
2022/11/12 12:14:29;;;;;;;7.95;3.70;;;;;;;;;;5035128;28;20128;-50
2022/11/12 12:16:59;;;;;;;5.50;2.47;;;;;;;;;;5034661;28;20141;-54
2022/11/12 12:19:32;;;;;;;6.90;2.72;;;;;;;;;;5047650;28;20140;-52
2022/11/12 12:22:01;;;;;;;8.15;3.13;;;;;;;;;;5043433;28;20059;-51
2022/11/12 12:24:29;;;;;;;7.07;3.28;;;;;;;;;;5039881;28;20085;-54
2022/11/12 12:26:57;;;;;;;5.53;2.75;;;;;;;;;;5042853;28;20041;-53
2022/11/12 12:29:26;;;;;;;4.85;2.20;;;;;;;;;;5038071;28;20132;-51
2022/11/12 12:31:55;;;;;;;11.68;3.63;;;;;;;;;;5040851;28;20045;-51
2022/11/12 12:34:24;;;;;;;8.48;3.25;;;;;;;;;;5039921;28;20049;-53
2022/11/12 12:36:51;;;;;;;7.13;2.80;;;;;;;;;;5039177;28;20513;-51
2022/11/12 12:39:23;;;;;;;7.65;2.67;;;;;;;;;;5035259;28;20636;-51
2022/11/12 12:41:53;;;;;;;9.75;2.90;;;;;;;;;;5034291;28;20216;-52
2022/11/12 12:44:19;;;;;;;7.05;2.60;;;;;;;;;;5034717;28;20049;-53
2022/11/12 12:46:49;;;;;;;7.65;3.40;;;;;;;;;;5041699;28;20132;-51
2022/11/12 12:49:19;;;;;;;5.90;2.60;;;;;;;;;;5036203;28;20115;-52
2022/11/12 12:51:45;;;;;;;7.82;3.25;;;;;;;;;;5033809;28;20148;-52
2022/11/12 12:54:31;;;;;;;10.10;3.33;;;;;;;;;;5038511;28;20151;-51
2022/11/12 12:57:00;;;;;;;8.38;2.88;;;;;;;;;;5033612;28;20152;-51
2022/11/12 12:59:28;;;;;;;10.77;2.95;;;;;;;;;;5033990;28;20163;-54
2022/11/12 13:01:57;;;;;;;7.68;2.60;;;;;;;;;;5033875;28;20169;-51
2022/11/12 13:04:47;;;;;;;8.63;2.97;;;;;;;;;;5050168;28;20052;-52
2022/11/12 13:07:14;;;;;;;8.18;3.10;;;;;;;;;;5021541;28;20132;-55
2022/11/12 13:09:40;;;;;;;8.73;4.22;;;;;;;;;;5033819;28;20047;-51
2022/11/12 13:12:24;;;;;;;12.98;5.57;;;;;;;;;;5046539;28;20958;-51
2022/11/12 13:15:08;;;;;;;10.30;4.07;;;;;;;;;;5034827;28;20132;-50
2022/11/12 13:17:48;;;;;;;12.55;6.00;;;;;;;;;;5036615;28;20063;-53
2022/11/12 13:20:35;;;;;;;6.93;3.90;;;;;;;;;;5033389;28;20128;-51
2022/11/12 13:23:03;;;;;;;11.60;3.92;;;;;;;;;;5046074;28;20137;-50
2022/11/12 13:25:30;;;;;;;7.72;3.33;;;;;;;;;;5035224;28;20540;-52
2022/11/12 13:28:08;;;;;;;43.30;18.85;;;;;;;;;;5033184;28;20041;-54
2022/11/12 13:30:53;;;;;;;13.15;7.07;;;;;;;;;;5033474;28;20059;-54
2022/11/12 13:33:23;;;;;;;12.00;5.15;;;;;;;;;;5041449;28;20083;-51
2022/11/12 13:35:49;;;;;;;9.48;4.47;;;;;;;;;;5030918;28;20132;-52
2022/11/12 13:38:16;;;;;;;7.07;3.33;;;;;;;;;;5037735;28;20199;-51
2022/11/12 13:40:44;;;;;;;6.13;3.15;;;;;;;;;;5031646;28;20493;-52
2022/11/12 13:43:19;;;;;;;5.65;3.08;;;;;;;;;;5032845;28;20136;-53
2022/11/12 13:45:47;;;;;;;7.93;2.92;;;;;;;;;;5033019;28;20149;-51
2022/11/12 13:48:17;;;;;;;10.32;2.97;;;;;;;;;;5038169;28;20153;-54
2022/11/12 13:50:49;;;;;;;6.53;3.55;;;;;;;;;;5033113;28;20055;-51
2022/11/12 13:53:19;;;;;;;10.60;4.40;;;;;;;;;;5036860;28;20489;-53
2022/11/12 13:55:47;;;;;;;8.40;3.50;;;;;;;;;;5033338;28;20136;-51
2022/11/12 13:58:19;;;;;;;7.38;3.20;;;;;;;;;;5032627;28;20045;-50
2022/11/12 14:00:51;;;;;;;9.48;3.75;;;;;;;;;;5042558;28;20049;-49
2022/11/12 14:03:18;;;;;;;8.32;3.85;;;;;;;;;;5034791;28;20139;-49
2022/11/12 14:05:47;;;;;;;8.45;2.90;;;;;;;;;;5032487;28;20054;-49
2022/11/12 14:08:23;;;;;;;8.52;2.88;;;;;;;;;;5037424;28;20051;-49
2022/11/12 14:10:58;;;;;;;5.03;2.72;;;;;;;;;;5041252;28;20084;-51
2022/11/12 14:13:42;;;;;;;7.05;3.17;;;;;;;;;;5032210;28;20517;-49
2022/11/12 14:16:21;;;;;;;7.70;3.08;;;;;;;;;;5035753;28;20157;-49
2022/11/12 14:18:58;;;;;;;7.13;3.88;;;;;;;;;;5040236;28;20132;-49
2022/11/12 14:21:24;;;;;;;12.13;4.70;;;;;;;;;;5032616;28;20045;-50
2022/11/12 14:23:52;;;;;;;13.77;6.20;;;;;;;;;;5038100;28;20137;-49
2022/11/12 14:26:33;;;;;;;7.63;3.78;;;;;;;;;;5033926;28;20137;-52
2022/11/12 14:29:00;;;;;;;7.25;3.72;;;;;;;;;;5032120;28;20558;-52
2022/11/12 14:31:28;;;;;;;6.55;3.20;;;;;;;;;;5042833;28;20048;-52
2022/11/12 14:33:54;;;;;;;8.55;3.53;;;;;;;;;;5037741;28;20148;-49
2022/11/12 14:36:21;;;;;;;10.73;4.35;;;;;;;;;;5032281;28;20148;-50
2022/11/12 14:38:50;;;;;;;10.00;4.07;;;;;;;;;;5037010;28;20084;-49
2022/11/12 14:41:18;;;;;;;10.85;5.20;;;;;;;;;;5032096;28;20095;-49
2022/11/12 14:43:46;;;;;;;6.28;3.38;;;;;;;;;;5048690;28;20132;-49
2022/11/12 14:46:21;;;;;;;6.75;3.13;;;;;;;;;;5043664;28;20179;-49
2022/11/12 14:48:51;;;;;;;14.88;5.40;;;;;;;;;;5038043;28;20829;-49
2022/11/12 14:51:18;;;;;;;14.90;7.03;;;;;;;;;;5042007;28;20499;-49
2022/11/12 14:53:49;;;;;;;12.90;5.85;;;;;;;;;;5039855;28;20547;-49
2022/11/12 14:56:19;;;;;;;7.45;3.75;;;;;;;;;;5043292;28;20063;-50
2022/11/12 14:58:45;;;;;;;8.95;4.10;;;;;;;;;;5035481;28;20441;-49
2022/11/12 15:01:19;;;;;;;17.77;5.82;;;;;;;;;;5039064;28;20136;-53
2022/11/12 15:03:45;;;;;;;11.07;4.63;;;;;;;;;;5036454;28;20064;-51
2022/11/12 15:06:15;;;;;;;7.55;3.58;;;;;;;;;;5036405;28;20049;-49
2022/11/12 15:08:41;;;;;;;8.40;3.80;;;;;;;;;;5035700;28;20132;-49
2022/11/12 15:11:19;;;;;;;6.25;2.92;;;;;;;;;;5038367;28;20141;-52
2022/11/12 15:13:46;;;;;;;7.38;2.60;;;;;;;;;;5047409;28;20489;-49
2022/11/12 15:16:17;;;;;;;6.10;2.20;;;;;;;;;;5050124;28;20215;-50
2022/11/12 15:18:44;;;;;;;8.80;2.92;;;;;;;;;;5044650;28;20131;-50
2022/11/12 15:21:13;;;;;;;6.18;2.65;;;;;;;;;;5052960;28;20136;-49
2022/11/12 15:23:48;;;;;;;4.72;2.55;;;;;;;;;;5040820;28;20086;-50
2022/11/12 15:26:15;;;;;;;5.60;2.72;;;;;;;;;;5037473;28;20450;-50